Time;durP1;ratioP1;P1;durP2;ratioP2;P2;SDS_P1;SDS_P2;PMS_P1;PMS_P2;Temp;Humidity;BMP_temperature;BMP_pressure;BME280_temperature;BME280_humidity;BME280_pressure;Samples;Min_cycle;Max_cycle;Signal;HPM_P1;HPM_P2
2021/12/22 00:01:24;;;;;;;22.80;12.23;;;-2.00;99.90;;;;;;5111938;28;20084;-85
2021/12/22 00:04:08;;;;;;;26.47;13.83;;;-0.60;99.90;;;;;;5111815;28;20099;-84
2021/12/22 00:06:53;;;;;;;22.33;14.23;;;-2.10;99.90;;;;;;5095847;28;20097;-84
2021/12/22 00:09:37;;;;;;;25.60;13.50;;;-2.10;99.90;;;;;;5095866;28;20513;-85
2021/12/22 00:12:21;;;;;;;26.07;13.50;;;-0.80;99.90;;;;;;5096092;28;20038;-85
2021/12/22 00:15:05;;;;;;;;;;;-2.20;99.90;;;;;;5096629;28;20117;-85
2021/12/22 00:17:49;;;;;;;19.98;10.07;;;-2.20;99.90;;;;;;5081432;28;19989;-84
2021/12/22 00:20:34;;;;;;;19.90;11.90;;;-2.20;99.90;;;;;;5095821;28;20038;-84
2021/12/22 00:23:18;;;;;;;22.53;13.83;;;-0.70;99.90;;;;;;5075841;28;20133;-84
2021/12/22 00:26:02;;;;;;;24.80;12.83;;;-2.30;99.90;;;;;;5075761;28;20096;-85
2021/12/22 00:28:48;;;;;;;20.50;12.43;;;-2.30;99.90;;;;;;5074633;28;20507;-85
2021/12/22 00:31:40;;;;;;;19.80;12.30;;;-2.30;99.90;;;;;;5067473;28;20513;-84
2021/12/22 00:34:26;;;;;;;21.67;11.37;;;-2.30;99.90;;;;;;5111364;28;20042;-84
2021/12/22 00:37:11;;;;;;;19.90;12.60;;;-2.30;99.90;;;;;;5075697;28;20085;-84
2021/12/22 00:39:56;;;;;;;24.77;12.57;;;-2.40;99.90;;;;;;5075027;28;20633;-84
2021/12/22 00:42:41;;;;;;;18.30;12.00;;;-2.40;99.90;;;;;;5076683;28;20522;-84
2021/12/22 00:45:28;;;;;;;20.43;12.73;;;-1.60;99.90;;;;;;5090865;28;20078;-85
2021/12/22 00:48:12;;;;;;;22.10;12.20;;;-1.90;99.90;;;;;;5120228;27;20488;-85
2021/12/22 00:50:56;;;;;;;27.50;12.70;;;-2.50;99.90;;;;;;5110434;28;20081;-84
2021/12/22 00:53:41;;;;;;;22.47;12.23;;;-2.50;99.90;;;;;;5109552;28;20127;-85
2021/12/22 00:56:25;;;;;;;;;;;-2.50;99.90;;;;;;5110491;28;20065;-85
2021/12/22 00:59:10;;;;;;;20.55;11.70;;;-2.50;99.90;;;;;;5110013;28;19923;-85
2021/12/22 01:01:54;;;;;;;19.43;11.47;;;-1.20;99.90;;;;;;5080941;28;20058;-84
2021/12/22 01:04:38;;;;;;;;;;;-2.60;99.90;;;;;;5111371;28;20477;-85
2021/12/22 01:07:22;;;;;;;18.35;12.40;;;-2.60;99.90;;;;;;5095140;28;20351;-85
2021/12/22 01:10:07;;;;;;;;;;;-2.60;99.90;;;;;;5110358;28;20038;-84
2021/12/22 01:12:53;;;;;;;;;;;-2.70;99.90;;;;;;5110947;28;19914;-84
2021/12/22 01:15:38;;;;;;;22.77;11.57;;;-1.20;99.90;;;;;;5109926;28;19915;-85
2021/12/22 01:18:32;;;;;;;26.80;12.00;;;-1.70;99.90;;;;;;5095627;28;20054;-84
2021/12/22 01:21:23;;;;;;;21.00;12.53;;;-2.70;99.90;;;;;;5109763;28;20625;-84
2021/12/22 01:27:03;;;;;;;21.90;12.40;;;-2.80;99.90;;;;;;5110138;28;20575;-85
2021/12/22 01:29:48;;;;;;;23.97;12.07;;;-1.50;99.90;;;;;;5109231;28;20039;-84
2021/12/22 01:32:32;;;;;;;21.53;12.63;;;-2.80;99.90;;;;;;5109787;28;20051;-85
2021/12/22 01:35:20;;;;;;;24.50;13.10;;;-2.80;99.90;;;;;;5110699;28;20054;-84
2021/12/22 01:38:06;;;;;;;22.13;12.40;;;-2.80;99.90;;;;;;5095167;28;20031;-85
2021/12/22 01:40:51;;;;;;;21.70;12.17;;;-2.80;99.90;;;;;;5111897;28;20727;-85
2021/12/22 01:43:36;;;;;;;22.30;11.70;;;-2.80;99.90;;;;;;5113131;28;20063;-84
2021/12/22 01:49:36;;;;;;;24.33;12.23;;;-2.80;99.90;;;;;;5113869;28;20034;-85
2021/12/22 01:52:23;;;;;;;23.83;12.33;;;-2.80;99.90;;;;;;5113390;28;20046;-84
2021/12/22 01:55:26;;;;;;;24.10;12.63;;;-2.80;99.90;;;;;;5113747;28;20047;-85
2021/12/22 01:58:12;;;;;;;20.17;11.30;;;-2.90;99.90;;;;;;5113601;28;20054;-84
2021/12/22 02:00:56;;;;;;;19.40;11.70;;;-2.90;99.90;;;;;;5092195;28;20105;-84
2021/12/22 02:03:41;;;;;;;20.57;12.60;;;-2.90;99.90;;;;;;5078542;28;20081;-85
2021/12/22 02:06:26;;;;;;;18.60;11.33;;;-1.80;99.90;;;;;;5103963;28;20093;-84
2021/12/22 02:09:15;;;;;;;23.60;12.33;;;-3.00;99.90;;;;;;5098197;28;20104;-84
2021/12/22 02:11:59;;;;;;;21.80;11.73;;;-3.00;99.90;;;;;;5112474;28;20058;-85
2021/12/22 02:14:45;;;;;;;21.07;11.93;;;-3.00;99.90;;;;;;5113815;28;20039;-85
2021/12/22 02:17:29;;;;;;;18.63;10.57;;;-2.00;99.90;;;;;;5113734;28;20086;-85
2021/12/22 02:20:14;;;;;;;20.73;11.83;;;-3.10;99.90;;;;;;5112309;28;20400;-85
2021/12/22 02:22:59;;;;;;;27.93;11.97;;;-3.10;99.90;;;;;;5126850;27;20097;-84
2021/12/22 02:25:52;;;;;;;25.47;13.50;;;-3.10;99.90;;;;;;5113767;28;20115;-84
2021/12/22 02:28:40;;;;;;;15.73;10.80;;;-3.10;99.90;;;;;;5113675;28;20352;-84
2021/12/22 02:31:25;;;;;;;23.97;12.70;;;-3.20;99.90;;;;;;5113585;28;20047;-84
2021/12/22 02:34:14;;;;;;;20.03;12.00;;;-3.20;99.90;;;;;;5111652;28;20093;-84
2021/12/22 02:37:02;;;;;;;19.30;11.63;;;-3.20;99.90;;;;;;5112905;28;20039;-85
2021/12/22 02:39:51;;;;;;;26.87;13.30;;;-3.20;99.90;;;;;;5098693;28;20103;-85
2021/12/22 02:42:35;;;;;;;24.63;12.50;;;-3.20;99.90;;;;;;5113208;28;20062;-84
2021/12/22 02:45:21;;;;;;;19.40;11.73;;;-3.20;99.90;;;;;;5069369;28;20140;-84
2021/12/22 02:48:05;;;;;;;22.60;12.23;;;-3.20;99.90;;;;;;5097288;28;20080;-85
2021/12/22 02:50:50;;;;;;;21.73;11.30;;;-3.20;99.90;;;;;;5082786;28;20042;-84
2021/12/22 02:53:42;;;;;;;21.90;11.33;;;-2.30;99.90;;;;;;5113017;28;20034;-84
2021/12/22 02:56:34;;;;;;;22.17;12.37;;;-3.30;99.90;;;;;;5098870;28;20445;-84
2021/12/22 02:59:44;;;;;;;23.33;12.90;;;-3.30;99.90;;;;;;5112658;28;20112;-84
2021/12/22 03:02:40;;;;;;;21.30;11.07;;;-3.30;99.90;;;;;;5101029;28;20051;-84
2021/12/22 03:05:26;;;;;;;19.87;10.93;;;-3.30;99.90;;;;;;5072464;28;20100;-84
2021/12/22 03:08:10;;;;;;;22.20;11.67;;;-3.40;99.90;;;;;;5082615;28;20494;-84
2021/12/22 03:10:55;;;;;;;;;;;-3.40;99.90;;;;;;5113434;28;20049;-84
2021/12/22 03:13:40;;;;;;;21.47;10.93;;;-3.40;99.90;;;;;;5112965;28;19923;-84
2021/12/22 03:16:24;;;;;;;18.97;11.77;;;-3.40;99.90;;;;;;5097409;28;20045;-84
2021/12/22 03:19:10;;;;;;;23.10;11.67;;;-3.50;99.90;;;;;;5096901;28;20403;-84
2021/12/22 03:22:01;;;;;;;22.23;11.33;;;-3.40;99.90;;;;;;5091150;28;20748;-84
2021/12/22 03:24:48;;;;;;;22.20;11.60;;;-3.40;99.90;;;;;;5093255;28;20047;-84
2021/12/22 03:27:33;;;;;;;20.60;11.47;;;-3.40;99.90;;;;;;5085712;28;20042;-84
2021/12/22 03:30:21;;;;;;;28.23;11.60;;;-3.40;99.90;;;;;;5082385;28;20035;-84
2021/12/22 03:33:05;;;;;;;20.57;11.80;;;-3.60;99.90;;;;;;5112031;28;20149;-84
2021/12/22 03:35:49;;;;;;;;;;;-2.40;99.90;;;;;;5112943;28;20039;-84
2021/12/22 03:38:34;;;;;;;20.60;11.32;;;-3.50;99.90;;;;;;5112193;28;19937;-84
2021/12/22 03:41:19;;;;;;;20.33;11.40;;;-3.50;99.90;;;;;;5082301;28;20055;-84
2021/12/22 03:44:04;;;;;;;20.57;11.60;;;-3.50;99.90;;;;;;5109773;28;20549;-84
2021/12/22 03:46:50;;;;;;;19.87;10.83;;;-3.50;99.90;;;;;;5112337;28;20038;-84
2021/12/22 03:49:35;;;;;;;22.67;12.57;;;-3.50;99.90;;;;;;5111281;28;20042;-84
2021/12/22 03:52:20;;;;;;;19.93;10.97;;;-3.50;99.90;;;;;;5111666;28;20499;-84
2021/12/22 03:55:05;;;;;;;;;;;-3.50;99.90;;;;;;5097165;28;20039;-84
2021/12/22 03:57:50;;;;;;;20.70;10.93;;;-3.50;99.90;;;;;;5112066;28;19915;-84
2021/12/22 04:00:40;;;;;;;20.27;11.60;;;-3.50;99.90;;;;;;5110756;28;20072;-83
2021/12/22 04:03:30;;;;;;;19.00;10.73;;;-3.50;99.90;;;;;;5109378;28;20042;-84
2021/12/22 04:06:14;;;;;;;21.53;10.97;;;-3.50;99.90;;;;;;5110309;28;20034;-84
2021/12/22 04:08:59;;;;;;;27.87;11.60;;;-3.50;99.90;;;;;;5110885;28;20047;-84
2021/12/22 04:11:44;;;;;;;18.23;10.60;;;-3.50;99.90;;;;;;5110703;28;20139;-84
2021/12/22 04:14:28;;;;;;;19.33;11.70;;;-3.60;99.90;;;;;;5110271;28;20034;-84
2021/12/22 04:17:13;;;;;;;22.60;12.33;;;-3.60;99.90;;;;;;5095817;28;20042;-84
2021/12/22 04:19:57;;;;;;;24.30;11.77;;;-1.90;99.90;;;;;;5095326;28;20038;-84
2021/12/22 04:22:41;;;;;;;22.27;11.57;;;-3.60;99.90;;;;;;5110612;28;20078;-84
2021/12/22 04:25:26;;;;;;;;;;;-3.60;99.90;;;;;;5111581;28;20135;-84
2021/12/22 04:28:11;;;;;;;20.07;10.77;;;-3.60;99.90;;;;;;5110290;28;19919;-84
2021/12/22 04:30:55;;;;;;;21.23;11.37;;;-3.00;99.90;;;;;;5096170;28;20119;-84
2021/12/22 04:33:39;;;;;;;;;;;-3.60;99.90;;;;;;5111865;28;20076;-84
2021/12/22 04:36:23;;;;;;;29.23;12.13;;;-3.60;99.90;;;;;;5109539;28;19918;-84
2021/12/22 04:39:09;;;;;;;;;;;-3.60;99.90;;;;;;5110736;28;20039;-84
2021/12/22 04:41:53;;;;;;;21.80;12.63;;;-3.60;99.90;;;;;;5111053;28;19981;-84
2021/12/22 04:44:37;;;;;;;;;;;-3.60;99.90;;;;;;5111548;28;20042;-84
2021/12/22 04:47:21;;;;;;;20.98;10.98;;;-2.90;99.90;;;;;;5095350;28;19954;-84
2021/12/22 04:50:10;;;;;;;;;;;-3.70;99.90;;;;;;5111720;28;20294;-83
2021/12/22 04:53:04;;;;;;;19.97;11.37;;;-3.70;99.90;;;;;;5110908;28;19957;-84
2021/12/22 04:55:48;;;;;;;22.52;10.75;;;-3.70;99.90;;;;;;5111274;28;20399;-84
2021/12/22 04:58:33;;;;;;;20.73;11.10;;;-3.00;99.90;;;;;;5095178;28;20101;-84
2021/12/22 05:01:17;;;;;;;23.50;12.63;;;-3.70;99.90;;;;;;5081016;28;20058;-84
2021/12/22 05:04:01;;;;;;;;;;;-3.70;99.90;;;;;;5096184;28;20072;-83
2021/12/22 05:06:45;;;;;;;21.42;12.60;;;-3.80;99.90;;;;;;5095362;28;20425;-84
2021/12/22 05:09:30;;;;;;;21.73;12.43;;;-3.80;99.90;;;;;;5080945;28;20042;-84
2021/12/22 05:12:14;;;;;;;;;;;-3.80;99.90;;;;;;5111172;28;20099;-84
2021/12/22 05:14:58;;;;;;;22.17;11.20;;;-3.80;99.90;;;;;;5114545;28;19953;-84
2021/12/22 05:20:29;;;;;;;21.20;12.10;;;-3.80;99.90;;;;;;5099199;28;20042;-84
2021/12/22 05:23:13;;;;;;;;;;;-3.80;99.90;;;;;;5100103;28;20120;-84
2021/12/22 05:25:57;;;;;;;18.90;11.02;;;-3.80;99.90;;;;;;5099559;28;20031;-83
2021/12/22 05:28:41;;;;;;;;;;;-3.80;99.90;;;;;;5114554;28;20043;-84
2021/12/22 05:31:27;;;;;;;22.40;11.82;;;-3.90;99.90;;;;;;5114421;28;20007;-84
2021/12/22 05:34:11;;;;;;;20.67;11.83;;;-3.90;99.90;;;;;;5099332;28;20034;-83
2021/12/22 05:36:55;;;;;;;22.80;12.47;;;-3.90;99.90;;;;;;5114602;28;20043;-83
2021/12/22 05:39:40;;;;;;;20.30;11.97;;;-3.90;99.90;;;;;;5114835;28;20601;-83
2021/12/22 05:42:24;;;;;;;;;;;-3.90;99.90;;;;;;5085763;28;20065;-84
2021/12/22 05:45:09;;;;;;;21.93;11.87;;;-3.90;99.90;;;;;;5100133;28;19915;-84
2021/12/22 05:47:54;;;;;;;20.93;12.53;;;-3.90;99.90;;;;;;5086230;28;20833;-84
2021/12/22 05:50:38;;;;;;;23.07;12.13;;;-4.00;99.90;;;;;;5099820;28;20034;-84
2021/12/22 05:53:22;;;;;;;21.70;11.73;;;-3.90;99.90;;;;;;5085623;28;20034;-84
2021/12/22 05:56:06;;;;;;;22.90;12.80;;;-4.00;99.90;;;;;;5115918;28;20537;-83
2021/12/22 05:58:51;;;;;;;22.20;12.10;;;-3.90;99.90;;;;;;5100170;28;20043;-84
2021/12/22 06:01:35;;;;;;;21.67;12.03;;;-4.00;99.90;;;;;;5080402;28;20043;-84
2021/12/22 06:04:19;;;;;;;27.27;12.30;;;-4.00;99.90;;;;;;5085019;28;20042;-84
2021/12/22 06:07:04;;;;;;;27.50;14.97;;;-4.00;99.90;;;;;;5100077;28;20046;-83
2021/12/22 06:09:48;;;;;;;23.07;12.53;;;-2.90;99.90;;;;;;5085207;28;20046;-84
2021/12/22 06:12:33;;;;;;;21.70;12.47;;;-4.00;99.90;;;;;;5097774;28;20089;-84
2021/12/22 06:15:17;;;;;;;;;;;-4.00;99.90;;;;;;5119774;27;20039;-83
2021/12/22 06:18:04;;;;;;;22.80;11.60;;;-4.00;99.90;;;;;;5114768;28;20001;-83
2021/12/22 06:20:48;;;;;;;26.63;13.67;;;-4.00;99.90;;;;;;5081102;28;20043;-84
2021/12/22 06:23:32;;;;;;;24.03;14.60;;;-4.00;99.90;;;;;;5099057;28;20047;-84
2021/12/22 06:26:16;;;;;;;;;;;-4.00;99.90;;;;;;5114051;28;20096;-83
2021/12/22 06:29:01;;;;;;;26.15;13.50;;;-4.00;99.90;;;;;;5099058;28;19915;-83
2021/12/22 06:31:46;;;;;;;24.97;12.70;;;-4.10;99.90;;;;;;5096385;28;20596;-83
2021/12/22 06:34:29;;;;;;;;;;;-4.00;99.90;;;;;;5112064;28;20055;-84
2021/12/22 06:37:14;;;;;;;22.77;13.05;;;-2.80;99.90;;;;;;5088977;28;20004;-83
2021/12/22 06:39:58;;;;;;;21.13;12.03;;;-4.10;99.90;;;;;;5095899;28;20549;-83
2021/12/22 06:42:43;;;;;;;25.67;12.13;;;-4.00;99.90;;;;;;5127831;27;20082;-83
2021/12/22 06:45:29;;;;;;;24.97;12.70;;;-4.00;99.90;;;;;;5114223;28;20490;-83
2021/12/22 06:48:13;;;;;;;21.80;12.13;;;-4.00;99.90;;;;;;5114225;28;20089;-83
2021/12/22 06:50:58;;;;;;;23.63;12.80;;;-4.00;99.90;;;;;;5098866;28;20130;-83
2021/12/22 06:53:42;;;;;;;23.27;12.30;;;-2.80;99.90;;;;;;5098450;28;20157;-83
2021/12/22 06:56:27;;;;;;;25.10;13.13;;;-4.00;99.90;;;;;;5113698;28;20038;-83
2021/12/22 06:59:13;;;;;;;22.43;12.60;;;-4.00;99.90;;;;;;5099400;28;20119;-83
2021/12/22 07:01:58;;;;;;;26.53;14.13;;;-4.00;99.90;;;;;;5113284;28;20066;-82
2021/12/22 07:04:42;;;;;;;23.80;13.37;;;-4.00;99.90;;;;;;5113998;28;20453;-83
2021/12/22 07:07:26;;;;;;;24.13;12.97;;;-4.00;99.90;;;;;;5112944;28;20085;-83
2021/12/22 07:10:11;;;;;;;23.97;12.67;;;-4.00;99.90;;;;;;5108201;27;20053;-83
2021/12/22 07:12:55;;;;;;;24.53;13.43;;;-4.00;99.90;;;;;;5109459;28;20092;-84
2021/12/22 07:15:40;;;;;;;22.23;12.10;;;-4.00;99.90;;;;;;5105077;28;20620;-83
2021/12/22 07:18:25;;;;;;;26.23;13.20;;;-4.00;99.90;;;;;;5081702;28;20042;-83
2021/12/22 07:21:10;;;;;;;26.53;12.27;;;-4.00;99.90;;;;;;5092340;28;20051;-84
2021/12/22 07:23:55;;;;;;;28.30;12.70;;;-4.00;99.90;;;;;;5094603;28;20046;-83
2021/12/22 07:26:39;;;;;;;23.20;12.90;;;-4.10;99.90;;;;;;5092360;28;20039;-83
2021/12/22 07:29:23;;;;;;;32.97;14.17;;;-4.00;99.90;;;;;;5095262;28;20156;-84
2021/12/22 07:32:08;;;;;;;29.07;14.20;;;-3.30;99.90;;;;;;5098199;28;20051;-83
2021/12/22 07:35:06;;;;;;;24.67;12.63;;;-4.00;99.90;;;;;;5090223;28;20107;-83
2021/12/22 07:38:00;;;;;;;27.13;12.03;;;-4.00;99.90;;;;;;5094300;28;20089;-84
2021/12/22 07:40:44;;;;;;;29.80;12.88;;;-4.00;99.90;;;;;;5105742;28;20081;-84
2021/12/22 07:43:29;;;;;;;;;;;-4.00;99.90;;;;;;5092223;28;20105;-83
2021/12/22 07:46:13;;;;;;;;;;;-3.90;99.90;;;;;;5105486;28;19926;-83
2021/12/22 07:48:57;;;;;;;25.35;12.35;;;-4.00;99.90;;;;;;5075761;28;19915;-84
2021/12/22 07:51:41;;;;;;;;;;;-4.00;99.90;;;;;;5076094;28;20096;-83
2021/12/22 07:54:26;;;;;;;27.48;12.40;;;-4.00;99.90;;;;;;5104916;27;20391;-84
2021/12/22 07:57:10;;;;;;;;;;;-4.00;99.90;;;;;;5101097;28;20042;-83
2021/12/22 07:59:54;;;;;;;25.58;13.50;;;-3.90;99.90;;;;;;5109692;28;20394;-84
2021/12/22 08:02:39;;;;;;;30.40;13.63;;;-4.00;99.90;;;;;;5078650;28;20150;-84
2021/12/22 08:05:23;;;;;;;22.67;12.57;;;-3.90;99.90;;;;;;5083095;28;20461;-83
2021/12/22 08:08:08;;;;;;;23.63;13.20;;;-2.50;99.90;;;;;;5091355;28;20081;-84
2021/12/22 08:10:52;;;;;;;26.47;13.47;;;-3.80;99.90;;;;;;5091595;28;20035;-84
2021/12/22 08:13:37;;;;;;;22.10;12.50;;;-3.80;99.90;;;;;;5069250;28;20058;-84
2021/12/22 08:16:21;;;;;;;30.83;14.43;;;-3.80;99.90;;;;;;5061843;28;20046;-83
2021/12/22 08:19:05;;;;;;;25.70;13.93;;;-3.00;99.90;;;;;;5090591;28;20035;-84
2021/12/22 08:21:49;;;;;;;27.60;13.30;;;-3.70;99.90;;;;;;5062343;28;20047;-84
2021/12/22 08:24:34;;;;;;;25.40;13.80;;;-3.70;99.90;;;;;;5091326;28;20039;-84
2021/12/22 08:27:21;;;;;;;26.50;13.77;;;-3.60;99.90;;;;;;5093903;28;20051;-83
2021/12/22 08:30:07;;;;;;;27.60;15.33;;;-3.60;99.90;;;;;;5070600;28;20871;-88
2021/12/22 08:32:51;;;;;;;29.20;13.83;;;-3.60;99.90;;;;;;5095744;28;20090;-86
2021/12/22 08:38:50;;;;;;;;;;;-3.50;99.90;;;;;;5076197;28;20125;-84
2021/12/22 08:38:53;;;;;;;25.20;14.07;;;-1.50;99.90;;;;;;5091183;28;19915;-84
2021/12/22 08:41:45;;;;;;;26.90;12.83;;;-3.40;99.90;;;;;;5078560;28;20046;-84
2021/12/22 08:44:29;;;;;;;24.70;13.53;;;-2.30;99.90;;;;;;5055626;28;20067;-84
2021/12/22 08:47:14;;;;;;;29.07;14.63;;;-3.30;99.90;;;;;;5055533;28;20094;-84
2021/12/22 08:49:59;;;;;;;27.40;13.87;;;-3.20;99.90;;;;;;5054845;28;20082;-83
2021/12/22 08:52:43;;;;;;;26.90;13.17;;;-1.70;99.90;;;;;;5055512;28;20106;-84
2021/12/22 08:55:27;;;;;;;27.53;14.67;;;-3.10;99.90;;;;;;5070573;28;20094;-84
2021/12/22 08:58:11;;;;;;;28.40;13.17;;;-3.10;99.90;;;;;;5054734;28;20036;-83
2021/12/22 09:00:55;;;;;;;;;;;-3.00;99.90;;;;;;5083568;28;20059;-84
2021/12/22 09:03:39;;;;;;;33.10;14.30;;;-3.00;99.90;;;;;;5055481;28;19954;-84
2021/12/22 09:06:24;;;;;;;39.40;16.77;;;-1.90;99.90;;;;;;5060363;28;20039;-84
2021/12/22 09:09:10;;;;;;;40.23;15.33;;;-2.90;99.90;;;;;;5074914;28;20063;-84
2021/12/22 09:11:55;;;;;;;34.23;15.33;;;-2.80;99.90;;;;;;5077074;28;20082;-84
2021/12/22 09:14:39;;;;;;;28.10;13.23;;;-1.70;99.90;;;;;;5058287;28;20404;-84
2021/12/22 09:17:24;;;;;;;28.08;12.68;;;-2.70;99.90;;;;;;5087274;28;20043;-84
2021/12/22 09:20:08;;;;;;;29.60;12.93;;;-2.70;99.90;;;;;;5041136;28;20081;-84
2021/12/22 09:22:52;;;;;;;28.83;13.67;;;-2.70;99.90;;;;;;5040950;28;20047;-84
2021/12/22 09:25:37;;;;;;;34.23;14.43;;;-2.50;99.90;;;;;;5057605;28;20098;-84
2021/12/22 09:28:22;;;;;;;30.57;14.83;;;-2.60;99.90;;;;;;5082314;28;20083;-84
2021/12/22 09:31:06;;;;;;;29.83;13.53;;;-2.50;99.90;;;;;;5034373;28;20048;-84
2021/12/22 09:33:51;;;;;;;45.03;17.23;;;-1.80;99.90;;;;;;5027287;28;20036;-84
2021/12/22 09:36:36;;;;;;;39.57;14.73;;;-1.20;99.90;;;;;;5070343;28;20547;-84
2021/12/22 09:39:20;;;;;;;32.20;15.67;;;-2.40;99.90;;;;;;5070262;28;20109;-84
2021/12/22 09:42:04;;;;;;;;;;;-2.40;99.90;;;;;;5072390;28;20059;-84
2021/12/22 09:44:50;;;;;;;30.17;13.07;;;-2.30;99.90;;;;;;5076152;28;19999;-84
2021/12/22 09:47:50;;;;;;;30.60;12.77;;;-1.30;99.90;;;;;;5081884;28;20050;-84
2021/12/22 09:53:31;;;;;;;24.40;12.63;;;-2.10;99.90;;;;;;5090475;28;20499;-84
2021/12/22 09:56:20;;;;;;;27.57;13.33;;;-2.00;99.90;;;;;;5089752;28;20071;-84
2021/12/22 09:59:04;;;;;;;24.70;13.17;;;-2.00;99.90;;;;;;5079829;28;20108;-84
2021/12/22 10:01:48;;;;;;;24.93;11.77;;;-2.00;99.90;;;;;;5093011;28;20101;-84
2021/12/22 10:04:33;;;;;;;25.47;12.80;;;-0.50;99.90;;;;;;5052120;28;20491;-84
2021/12/22 10:07:20;;;;;;;;;;;-1.90;99.90;;;;;;5093796;28;20039;-84
2021/12/22 10:10:09;;;;;;;26.77;11.70;;;-1.00;99.90;;;;;;5077882;28;19931;-84
2021/12/22 10:13:05;;;;;;;24.03;11.47;;;-1.80;99.90;;;;;;5093740;28;20093;-84
2021/12/22 10:15:50;;;;;;;24.80;11.00;;;-1.70;99.90;;;;;;5086765;28;20034;-85
2021/12/22 10:18:34;;;;;;;24.97;12.87;;;-1.70;99.90;;;;;;5065089;28;20116;-83
2021/12/22 10:21:24;;;;;;;25.13;12.77;;;-0.40;99.90;;;;;;5077753;28;20042;-83
2021/12/22 10:24:08;;;;;;;21.67;12.30;;;-0.60;99.90;;;;;;5092956;28;20035;-84
2021/12/22 10:27:05;;;;;;;20.97;12.33;;;-1.50;99.90;;;;;;5068907;28;20051;-85
2021/12/22 10:29:49;;;;;;;28.10;12.37;;;-1.50;99.90;;;;;;5096714;28;20035;-84
2021/12/22 10:32:33;;;;;;;;;;;-1.40;99.90;;;;;;5093974;28;20043;-83
2021/12/22 10:35:17;;;;;;;20.38;10.90;;;-1.40;99.90;;;;;;5091875;28;19954;-83
2021/12/22 10:38:02;;;;;;;20.17;11.17;;;-1.50;99.90;;;;;;5063713;28;20120;-84
2021/12/22 10:40:55;;;;;;;22.53;12.07;;;-1.30;99.90;;;;;;5078088;28;20045;-84
2021/12/22 10:43:42;;;;;;;24.37;12.40;;;0.20;99.90;;;;;;5087283;28;20135;-84
2021/12/22 10:46:32;;;;;;;30.17;12.63;;;-1.20;99.90;;;;;;5107300;28;20038;-84
2021/12/22 10:49:21;;;;;;;25.70;11.90;;;-1.10;99.90;;;;;;5110781;28;20039;-84
2021/12/22 10:52:05;;;;;;;21.77;10.63;;;-1.10;99.90;;;;;;5121911;27;20074;-84
2021/12/22 10:54:51;;;;;;;25.43;12.37;;;0.10;99.90;;;;;;5107722;28;20173;-83
2021/12/22 10:57:41;;;;;;;18.77;10.13;;;-1.00;99.90;;;;;;5091943;28;20494;-84
2021/12/22 11:00:26;;;;;;;22.30;11.67;;;-1.00;99.90;;;;;;5090938;28;20093;-84
2021/12/22 11:03:15;;;;;;;19.37;11.30;;;-1.00;99.90;;;;;;5091260;28;20462;-84
2021/12/22 11:06:02;;;;;;;22.97;11.03;;;-0.90;99.90;;;;;;5091767;28;20454;-84
2021/12/22 11:09:15;;;;;;;19.63;10.90;;;-0.10;99.90;;;;;;5101137;28;21290;-83
2021/12/22 11:11:59;;;;;;;22.47;10.67;;;1.10;99.90;;;;;;5098814;28;20039;-84
2021/12/22 11:14:47;;;;;;;;;;;-0.80;99.90;;;;;;5109741;28;20046;-85
2021/12/22 11:17:37;;;;;;;17.30;10.57;;;-0.80;99.90;;;;;;5099447;28;19915;-84
2021/12/22 11:20:23;;;;;;;21.80;10.23;;;-0.80;99.90;;;;;;5092395;28;20541;-85
2021/12/22 11:23:12;;;;;;;21.13;11.20;;;-0.80;99.90;;;;;;5092589;28;20042;-84
2021/12/22 11:25:56;;;;;;;20.93;11.83;;;-0.80;99.90;;;;;;5091354;28;20041;-84
2021/12/22 11:28:41;;;;;;;23.27;10.77;;;-0.70;99.90;;;;;;5089667;28;20404;-84
2021/12/22 11:31:26;;;;;;;20.30;11.10;;;-0.70;99.90;;;;;;5090786;28;20096;-86
2021/12/22 11:34:12;;;;;;;20.00;10.37;;;-0.60;99.90;;;;;;5093918;28;20037;-85
2021/12/22 11:36:57;;;;;;;20.50;10.87;;;0.50;99.90;;;;;;5102208;28;20034;-85
2021/12/22 11:39:43;;;;;;;21.27;10.93;;;-0.60;99.90;;;;;;5091147;28;20546;-85
2021/12/22 11:42:32;;;;;;;22.17;10.80;;;-0.50;99.90;;;;;;5091741;28;20075;-85
2021/12/22 11:45:22;;;;;;;20.40;10.37;;;0.90;99.90;;;;;;5081173;28;20042;-85
2021/12/22 11:48:06;;;;;;;16.60;9.80;;;-0.50;99.90;;;;;;5088220;28;20388;-84
2021/12/22 11:50:50;;;;;;;17.63;10.40;;;-0.60;99.90;;;;;;5076122;28;20115;-85
2021/12/22 11:53:59;;;;;;;19.20;10.33;;;-0.50;99.90;;;;;;5090440;28;20037;-84
2021/12/22 11:56:47;;;;;;;18.57;10.13;;;1.10;99.90;;;;;;5108351;28;20082;-84
2021/12/22 11:59:40;;;;;;;17.37;10.23;;;-0.60;99.90;;;;;;5091306;28;20602;-84
2021/12/22 12:02:34;;;;;;;12.80;8.18;;;-0.50;99.90;;;;;;5075593;28;20074;-85
2021/12/22 12:05:27;;;;;;;21.35;10.95;;;1.00;99.90;;;;;;5075813;28;20457;-85
2021/12/22 12:08:17;;;;;;;20.07;10.43;;;0.40;99.90;;;;;;5105917;28;20034;-85
2021/12/22 12:11:02;;;;;;;16.17;10.17;;;-0.20;99.90;;;;;;5062650;28;20498;-86
2021/12/22 12:13:55;;;;;;;15.97;9.73;;;-0.50;99.90;;;;;;5082403;28;20040;-85
2021/12/22 12:22:46;;;;;;;16.87;10.10;;;-0.40;99.90;;;;;;5095828;28;20108;-84
2021/12/22 12:25:34;;;;;;;19.73;9.93;;;-0.50;99.90;;;;;;5102415;28;20134;-84
2021/12/22 12:28:19;;;;;;;19.47;10.73;;;-0.50;99.90;;;;;;5107958;28;20062;-85
2021/12/22 12:31:04;;;;;;;18.43;9.43;;;-0.30;99.90;;;;;;5088374;28;20113;-85
2021/12/22 12:33:49;;;;;;;;;;;-0.40;99.90;;;;;;5110341;28;20124;-85
2021/12/22 12:36:33;;;;;;;17.40;10.70;;;1.50;99.90;;;;;;5094540;28;19918;-85
2021/12/22 12:40:03;;;;;;;17.97;9.53;;;0.90;99.90;;;;;;5061625;28;20092;-85
2021/12/22 12:42:58;;;;;;;19.07;10.13;;;-0.40;99.90;;;;;;5090734;28;20058;-84
2021/12/22 12:45:46;;;;;;;20.60;10.13;;;-0.40;99.90;;;;;;5103953;28;20419;-84
2021/12/22 12:48:31;;;;;;;17.77;10.73;;;0.10;99.90;;;;;;5090594;28;20042;-85
2021/12/22 12:51:21;;;;;;;21.50;10.43;;;0.90;99.90;;;;;;5090176;28;20128;-85
2021/12/22 12:54:25;;;;;;;17.87;10.30;;;-0.40;99.90;;;;;;5091127;28;20070;-85
2021/12/22 12:57:15;;;;;;;21.45;10.90;;;-0.40;99.90;;;;;;5091175;28;20482;-86
2021/12/22 13:00:04;;;;;;;15.13;9.50;;;-0.40;99.90;;;;;;5091115;28;20081;-84
2021/12/22 13:02:59;;;;;;;17.67;9.87;;;-0.10;99.90;;;;;;5088463;28;20050;-85
2021/12/22 13:05:44;;;;;;;19.90;10.63;;;-0.40;99.90;;;;;;5075117;28;20038;-86
2021/12/22 13:08:31;;;;;;;19.23;10.63;;;0.30;99.90;;;;;;5093895;28;20112;-86
2021/12/22 13:11:15;;;;;;;16.23;9.97;;;-0.30;99.90;;;;;;5081775;28;20047;-85
2021/12/22 13:17:02;;;;;;;17.87;10.43;;;-0.10;99.90;;;;;;5098759;28;20058;-86
2021/12/22 13:19:50;;;;;;;18.73;10.17;;;-0.40;99.90;;;;;;5095306;28;20034;-84
2021/12/22 13:22:36;;;;;;;23.73;10.70;;;-0.40;99.90;;;;;;5095240;28;20062;-85
2021/12/22 13:25:25;;;;;;;19.80;10.90;;;-0.40;99.90;;;;;;5095835;28;20543;-85
2021/12/22 13:28:12;;;;;;;19.67;9.90;;;-0.40;99.90;;;;;;5095712;28;20065;-85
2021/12/22 13:31:01;;;;;;;19.07;11.77;;;-0.40;99.90;;;;;;5095707;28;20528;-85
2021/12/22 13:33:54;;;;;;;18.10;10.30;;;-0.20;99.90;;;;;;5095178;28;20043;-86
2021/12/22 13:36:39;;;;;;;18.17;11.10;;;0.40;99.90;;;;;;5114580;28;20034;-86
2021/12/22 13:39:23;;;;;;;21.77;9.70;;;0.60;99.90;;;;;;5071233;28;20038;-86
2021/12/22 13:42:08;;;;;;;23.43;12.87;;;-0.30;99.90;;;;;;5085185;28;20071;-85
2021/12/22 13:44:52;;;;;;;18.83;10.10;;;-0.30;99.90;;;;;;5098402;28;20529;-85
2021/12/22 13:47:36;;;;;;;18.17;10.13;;;-0.30;99.90;;;;;;5084686;28;20043;-85
2021/12/22 13:50:21;;;;;;;17.30;9.83;;;0.20;99.90;;;;;;5099592;28;20123;-85
2021/12/22 13:53:06;;;;;;;20.80;11.70;;;-0.10;99.90;;;;;;5114814;28;20100;-85
2021/12/22 13:55:52;;;;;;;17.10;10.00;;;-0.40;99.90;;;;;;5098517;28;20043;-85
2021/12/22 13:58:51;;;;;;;16.90;10.00;;;0.60;99.90;;;;;;5098779;28;20649;-85
2021/12/22 14:01:37;;;;;;;18.57;10.43;;;-0.40;99.90;;;;;;5098569;28;20070;-86
2021/12/22 14:04:31;;;;;;;20.57;10.57;;;-0.40;99.90;;;;;;5114622;28;20508;-85
2021/12/22 14:07:23;;;;;;;;;;;0.50;99.90;;;;;;5099578;28;20123;-85
2021/12/22 14:10:15;;;;;;;16.73;10.53;;;1.10;99.90;;;;;;5128014;27;19930;-85
2021/12/22 14:12:59;;;;;;;21.33;9.93;;;1.20;99.90;;;;;;5098942;28;20487;-85
2021/12/22 14:15:44;;;;;;;21.00;10.27;;;1.20;99.90;;;;;;5098161;28;20061;-85
2021/12/22 14:18:35;;;;;;;18.77;10.13;;;1.10;99.90;;;;;;5069141;28;20038;-85
2021/12/22 14:21:22;;;;;;;19.67;10.77;;;1.90;99.90;;;;;;5098638;28;20438;-85
2021/12/22 14:24:06;;;;;;;17.13;11.40;;;-0.50;99.90;;;;;;5113503;28;20104;-85
2021/12/22 14:26:51;;;;;;;19.07;11.20;;;-0.50;99.90;;;;;;5097626;28;20050;-85
2021/12/22 14:29:55;;;;;;;20.63;11.27;;;-0.50;99.90;;;;;;5098770;28;20529;-85
2021/12/22 14:32:39;;;;;;;18.40;11.40;;;1.50;99.90;;;;;;5083840;28;20109;-85
2021/12/22 14:35:27;;;;;;;19.30;10.33;;;-0.50;99.90;;;;;;5070234;28;20465;-85
2021/12/22 14:38:18;;;;;;;21.57;11.10;;;0.10;99.90;;;;;;5113920;28;20111;-85